Pagrindinis puslapis
METAR-TAF:

METAR-TAF

Oro uostai :

Upsala, Švedija

platuma: 59-53N, ilguma: 017-36E, Aukštis: 21 m

Dabartinis oras

Ataskaita buvo paskelbta 15 minutes, ne 13:50 UTC
Vėjas 12 kt iš Šiaurės/Šiaurės Rytų
Temperatūra 3°C
Drėgmė 35%
Slėgis 1016 hPa
Matomumas 10 km arba daugiau

METAR: ESCM 201350Z AUTO 02012KT 9999 NCD 03/M11 Q1016

Laikas: 16:05 (14:05 UTC)


TAF: trūkstamas

Orai ataskaitas ir orų prognozės (METAR, TAF).

turimą stotys yra geltonos ir raudonos taškus žemėlapyje.

Perkelti pele per norėdami pamatyti stoties vardą.

Tada spustelėkite, norėdami matyti oro stebėjimo ir prognozės.

Norėdami pakeisti žemėlapį: spustelėkite ant žalios mygtukų su juodo kryžiaus žemyn,; žalią mygtuką su brūkšneliu, jei norite nutolinti; arba žalių rodyklių gretimoms žemėlapius.


METAR-TAF: